Terminal Aerodrome Forecast
Issued by NWS

Current Version | Previous Version | Graphics & Text | Print | Product List | Glossary On
Versions: 1 2 3 4 5 6 7 8 9 10 11 12 13 14 15
000
FTUS41 KRNK 152340
TAFLWB
TAF
KLWB 152340Z 1600/1624 VRB03KT 5SM BR FEW090
     FM160900 00000KT 1/2SM FG SCT003
     FM161100 00000KT 3/4SM BR SCT003
     FM161300 00000KT 3SM BR SCT010
     FM161400 00000KT P6SM FEW020=

USA.gov is the U.S. government's official web portal to all federal, state and local government web resources and services.